sensor_id;sensor_type;location;lat;lon;timestamp;pressure;altitude;pressure_sealevel;temperature;humidity
42705;BME280;28342;42.594;23.414;2022-11-12T00:00:18;95856.59;;;9.99;86.81
42705;BME280;28342;42.594;23.414;2022-11-12T00:03:16;95857.63;;;10.03;85.55
42705;BME280;28342;42.594;23.414;2022-11-12T00:05:50;95801.03;;;9.48;86.36
42705;BME280;28342;42.594;23.414;2022-11-12T00:08:19;95819.03;;;9.62;86.50
42705;BME280;28342;42.594;23.414;2022-11-12T00:10:50;95842.06;;;9.81;86.50
42705;BME280;28342;42.594;23.414;2022-11-12T00:13:16;95783.34;;;9.39;86.40
42705;BME280;28342;42.594;23.414;2022-11-12T00:19:23;95838.91;;;9.64;87.64
42705;BME280;28342;42.594;23.414;2022-11-12T00:21:50;95819.59;;;9.53;88.06
42705;BME280;28342;42.594;23.414;2022-11-12T00:24:25;95817.72;;;9.59;87.80
42705;BME280;28342;42.594;23.414;2022-11-12T00:27:16;95843.66;;;9.77;87.74
42705;BME280;28342;42.594;23.414;2022-11-12T00:30:49;95808.75;;;9.40;88.63
42705;BME280;28342;42.594;23.414;2022-11-12T00:33:24;95840.22;;;9.62;89.26
42705;BME280;28342;42.594;23.414;2022-11-12T00:36:10;95820.91;;;9.46;89.37
42705;BME280;28342;42.594;23.414;2022-11-12T00:38:36;95809.28;;;9.37;89.80
42705;BME280;28342;42.594;23.414;2022-11-12T00:41:32;95828.88;;;9.41;90.15
42705;BME280;28342;42.594;23.414;2022-11-12T00:44:19;95822.78;;;9.50;89.84
42705;BME280;28342;42.594;23.414;2022-11-12T00:46:45;95842.09;;;9.66;90.28
42705;BME280;28342;42.594;23.414;2022-11-12T00:49:11;95826.47;;;9.59;90.23
42705;BME280;28342;42.594;23.414;2022-11-12T00:51:36;95786.00;;;9.23;91.02
42705;BME280;28342;42.594;23.414;2022-11-12T00:54:03;95784.97;;;9.19;90.81
42705;BME280;28342;42.594;23.414;2022-11-12T00:56:50;95806.66;;;9.26;91.14
42705;BME280;28342;42.594;23.414;2022-11-12T01:00:16;95803.47;;;9.24;90.86
42705;BME280;28342;42.594;23.414;2022-11-12T01:03:26;95795.53;;;9.40;90.03
42705;BME280;28342;42.594;23.414;2022-11-12T01:06:01;95804.78;;;9.42;90.28
42705;BME280;28342;42.594;23.414;2022-11-12T01:08:29;95802.09;;;9.47;90.58
42705;BME280;28342;42.594;23.414;2022-11-12T01:10:56;95769.56;;;9.32;90.22
42705;BME280;28342;42.594;23.414;2022-11-12T01:13:36;95798.38;;;9.58;90.29
42705;BME280;28342;42.594;23.414;2022-11-12T01:16:16;95788.09;;;9.52;89.80
42705;BME280;28342;42.594;23.414;2022-11-12T01:18:58;95816.66;;;9.70;89.77
42705;BME280;28342;42.594;23.414;2022-11-12T01:21:39;95783.88;;;9.15;91.29
42705;BME280;28342;42.594;23.414;2022-11-12T01:24:37;95818.81;;;9.27;92.00
42705;BME280;28342;42.594;23.414;2022-11-12T01:27:03;95791.28;;;9.18;91.25
42705;BME280;28342;42.594;23.414;2022-11-12T01:29:52;95819.88;;;9.32;90.74
42705;BME280;28342;42.594;23.414;2022-11-12T01:32:17;95764.31;;;8.96;90.90
42705;BME280;28342;42.594;23.414;2022-11-12T01:34:43;95760.63;;;9.07;89.67
42705;BME280;28342;42.594;23.414;2022-11-12T01:37:12;95805.06;;;9.36;89.87
42705;BME280;28342;42.594;23.414;2022-11-12T01:39:38;95762.19;;;9.08;89.60
42705;BME280;28342;42.594;23.414;2022-11-12T01:42:05;95776.44;;;9.33;89.67
42705;BME280;28342;42.594;23.414;2022-11-12T01:44:50;95750.53;;;9.19;89.38
42705;BME280;28342;42.594;23.414;2022-11-12T01:47:22;95776.97;;;9.45;89.11
42705;BME280;28342;42.594;23.414;2022-11-12T01:50:16;95765.59;;;9.34;89.52
42705;BME280;28342;42.594;23.414;2022-11-12T01:52:52;95753.69;;;9.26;88.99
42705;BME280;28342;42.594;23.414;2022-11-12T01:55:55;95778.28;;;9.42;89.48
42705;BME280;28342;42.594;23.414;2022-11-12T01:58:23;95752.66;;;9.22;89.18
42705;BME280;28342;42.594;23.414;2022-11-12T02:01:20;95786.53;;;9.36;89.26
42705;BME280;28342;42.594;23.414;2022-11-12T02:03:46;95757.66;;;9.19;89.34
42705;BME280;28342;42.594;23.414;2022-11-12T02:06:13;95742.06;;;9.12;89.44
42705;BME280;28342;42.594;23.414;2022-11-12T02:08:44;95751.84;;;9.17;89.29
42705;BME280;28342;42.594;23.414;2022-11-12T02:11:12;95771.16;;;9.38;89.05
42705;BME280;28342;42.594;23.414;2022-11-12T02:13:38;95805.56;;;9.53;89.03
42705;BME280;28342;42.594;23.414;2022-11-12T02:16:55;95809.78;;;9.54;88.63
42705;BME280;28342;42.594;23.414;2022-11-12T02:19:42;95802.38;;;9.51;88.76
42705;BME280;28342;42.594;23.414;2022-11-12T02:22:58;95789.94;;;9.31;88.94
42705;BME280;28342;42.594;23.414;2022-11-12T02:25:42;95766.94;;;9.26;88.75
42705;BME280;28342;42.594;23.414;2022-11-12T02:28:09;95817.50;;;9.50;88.65
42705;BME280;28342;42.594;23.414;2022-11-12T02:31:08;95807.69;;;9.41;88.91
42705;BME280;28342;42.594;23.414;2022-11-12T02:33:40;95813.78;;;9.46;88.49
42705;BME280;28342;42.594;23.414;2022-11-12T02:36:05;95794.97;;;9.33;88.09
42705;BME280;28342;42.594;23.414;2022-11-12T02:39:09;95807.19;;;9.39;88.38
42705;BME280;28342;42.594;23.414;2022-11-12T02:41:40;95787.88;;;9.23;88.39
42705;BME280;28342;42.594;23.414;2022-11-12T02:44:05;95766.69;;;9.08;88.85
42705;BME280;28342;42.594;23.414;2022-11-12T02:49:58;95768.53;;;9.12;88.30
42705;BME280;28342;42.594;23.414;2022-11-12T02:52:26;95780.19;;;9.16;88.84
42705;BME280;28342;42.594;23.414;2022-11-12T02:54:54;95797.09;;;9.31;88.59
42705;BME280;28342;42.594;23.414;2022-11-12T03:00:34;95751.09;;;8.96;88.82
42705;BME280;28342;42.594;23.414;2022-11-12T03:02:59;95773.84;;;9.02;88.16
42705;BME280;28342;42.594;23.414;2022-11-12T03:05:29;95786.78;;;9.19;88.41
42705;BME280;28342;42.594;23.414;2022-11-12T03:08:12;95781.78;;;9.22;87.79
42705;BME280;28342;42.594;23.414;2022-11-12T03:10:38;95810.88;;;9.43;86.87
42705;BME280;28342;42.594;23.414;2022-11-12T03:13:19;95754.50;;;9.12;86.49
42705;BME280;28342;42.594;23.414;2022-11-12T03:15:46;95804.53;;;9.39;86.47
42705;BME280;28342;42.594;23.414;2022-11-12T03:18:12;95787.59;;;9.24;86.12
42705;BME280;28342;42.594;23.414;2022-11-12T03:20:39;95746.84;;;8.85;85.38
42705;BME280;28342;42.594;23.414;2022-11-12T03:23:42;95806.91;;;8.99;85.92
42705;BME280;28342;42.594;23.414;2022-11-12T03:26:07;95801.88;;;9.03;85.54
42705;BME280;28342;42.594;23.414;2022-11-12T03:28:33;95784.41;;;8.87;86.34
42705;BME280;28342;42.594;23.414;2022-11-12T03:30:59;95784.97;;;8.79;85.99
42705;BME280;28342;42.594;23.414;2022-11-12T03:33:26;95781.75;;;8.56;86.03
42705;BME280;28342;42.594;23.414;2022-11-12T03:35:52;95745.75;;;8.40;85.13
42705;BME280;28342;42.594;23.414;2022-11-12T03:38:37;95809.00;;;8.52;85.80
42705;BME280;28342;42.594;23.414;2022-11-12T03:41:02;95797.09;;;8.49;84.23
42705;BME280;28342;42.594;23.414;2022-11-12T03:43:28;95775.91;;;8.39;83.85
42705;BME280;28342;42.594;23.414;2022-11-12T03:46:12;95811.63;;;8.47;84.45
42705;BME280;28342;42.594;23.414;2022-11-12T03:49:09;95816.06;;;8.31;83.90
42705;BME280;28342;42.594;23.414;2022-11-12T03:51:51;95787.63;;;7.96;85.04
42705;BME280;28342;42.594;23.414;2022-11-12T03:54:29;95818.38;;;8.12;84.54
42705;BME280;28342;42.594;23.414;2022-11-12T03:56:54;95746.88;;;7.76;84.11
42705;BME280;28342;42.594;23.414;2022-11-12T03:59:50;95799.56;;;7.98;84.12
42705;BME280;28342;42.594;23.414;2022-11-12T04:02:47;95797.19;;;8.02;83.88
42705;BME280;28342;42.594;23.414;2022-11-12T04:05:22;95738.63;;;7.63;83.65
42705;BME280;28342;42.594;23.414;2022-11-12T04:08:12;95752.88;;;7.57;83.51
42705;BME280;28342;42.594;23.414;2022-11-12T04:14:11;95762.38;;;7.53;83.27
42705;BME280;28342;42.594;23.414;2022-11-12T04:16:36;95778.78;;;7.65;83.10
42705;BME280;28342;42.594;23.414;2022-11-12T04:19:20;95801.03;;;7.74;82.36
42705;BME280;28342;42.594;23.414;2022-11-12T04:22:09;95787.50;;;7.65;82.43
42705;BME280;28342;42.594;23.414;2022-11-12T04:24:44;95778.75;;;7.55;81.92
42705;BME280;28342;42.594;23.414;2022-11-12T04:27:34;95756.41;;;7.25;82.05
42705;BME280;28342;42.594;23.414;2022-11-12T04:30:06;95779.97;;;7.37;82.80
42705;BME280;28342;42.594;23.414;2022-11-12T04:32:49;95745.78;;;7.15;83.09
42705;BME280;28342;42.594;23.414;2022-11-12T04:35:41;95744.47;;;7.17;83.67
42705;BME280;28342;42.594;23.414;2022-11-12T04:38:08;95770.69;;;7.34;83.27
42705;BME280;28342;42.594;23.414;2022-11-12T04:40:33;95764.63;;;7.34;82.86
42705;BME280;28342;42.594;23.414;2022-11-12T04:43:22;95759.59;;;7.27;82.63
42705;BME280;28342;42.594;23.414;2022-11-12T04:46:08;95778.63;;;7.34;82.60
42705;BME280;28342;42.594;23.414;2022-11-12T04:48:46;95791.50;;;7.21;82.92
42705;BME280;28342;42.594;23.414;2022-11-12T04:51:18;95786.91;;;7.06;83.61
42705;BME280;28342;42.594;23.414;2022-11-12T04:54:07;95778.47;;;7.09;83.68
42705;BME280;28342;42.594;23.414;2022-11-12T04:56:33;95792.13;;;7.01;83.77
42705;BME280;28342;42.594;23.414;2022-11-12T04:58:58;95773.53;;;6.85;83.88
42705;BME280;28342;42.594;23.414;2022-11-12T05:01:24;95774.34;;;6.86;84.11
42705;BME280;28342;42.594;23.414;2022-11-12T05:03:52;95799.00;;;7.02;84.53
42705;BME280;28342;42.594;23.414;2022-11-12T05:06:18;95814.09;;;7.06;84.52
42705;BME280;28342;42.594;23.414;2022-11-12T05:09:02;95813.22;;;7.01;84.72
42705;BME280;28342;42.594;23.414;2022-11-12T05:11:46;95827.06;;;7.13;84.72
42705;BME280;28342;42.594;23.414;2022-11-12T05:14:34;95806.38;;;7.00;84.47
42705;BME280;28342;42.594;23.414;2022-11-12T05:17:06;95817.00;;;7.10;83.25
42705;BME280;28342;42.594;23.414;2022-11-12T05:19:35;95808.09;;;6.84;83.71
42705;BME280;28342;42.594;23.414;2022-11-12T05:22:01;95769.19;;;6.69;83.99
42705;BME280;28342;42.594;23.414;2022-11-12T05:25:06;95798.94;;;6.92;84.70
42705;BME280;28342;42.594;23.414;2022-11-12T05:27:37;95829.34;;;7.04;85.03
42705;BME280;28342;42.594;23.414;2022-11-12T05:30:11;95827.47;;;7.00;85.76
42705;BME280;28342;42.594;23.414;2022-11-12T05:32:36;95808.97;;;6.95;85.61
42705;BME280;28342;42.594;23.414;2022-11-12T05:35:02;95788.78;;;6.78;85.38
42705;BME280;28342;42.594;23.414;2022-11-12T05:37:34;95786.19;;;6.83;84.82
42705;BME280;28342;42.594;23.414;2022-11-12T05:40:10;95825.38;;;7.02;84.69
42705;BME280;28342;42.594;23.414;2022-11-12T05:42:35;95805.78;;;6.93;84.34
42705;BME280;28342;42.594;23.414;2022-11-12T05:45:06;95799.41;;;6.88;84.86
42705;BME280;28342;42.594;23.414;2022-11-12T05:47:42;95827.97;;;6.97;85.75
42705;BME280;28342;42.594;23.414;2022-11-12T05:50:13;95816.50;;;6.81;86.83
42705;BME280;28342;42.594;23.414;2022-11-12T05:52:38;95794.00;;;6.73;86.15
42705;BME280;28342;42.594;23.414;2022-11-12T05:55:05;95826.91;;;6.93;85.99
42705;BME280;28342;42.594;23.414;2022-11-12T05:57:31;95800.72;;;6.86;85.18
42705;BME280;28342;42.594;23.414;2022-11-12T06:00:19;95802.03;;;6.88;84.88
42705;BME280;28342;42.594;23.414;2022-11-12T06:03:11;95830.63;;;6.97;85.08
42705;BME280;28342;42.594;23.414;2022-11-12T06:05:50;95812.56;;;6.83;85.41
42705;BME280;28342;42.594;23.414;2022-11-12T06:08:32;95812.28;;;6.80;85.27
42705;BME280;28342;42.594;23.414;2022-11-12T06:10:59;95858.00;;;6.91;86.39
42705;BME280;28342;42.594;23.414;2022-11-12T06:13:31;95821.03;;;6.58;87.08
42705;BME280;28342;42.594;23.414;2022-11-12T06:16:12;95817.38;;;6.59;86.98
42705;BME280;28342;42.594;23.414;2022-11-12T06:22:07;95810.16;;;6.50;87.16
42705;BME280;28342;42.594;23.414;2022-11-12T06:24:54;95826.00;;;6.55;87.56
42705;BME280;28342;42.594;23.414;2022-11-12T06:27:20;95803.69;;;6.36;88.68
42705;BME280;28342;42.594;23.414;2022-11-12T06:30:00;95848.75;;;6.61;87.92
42705;BME280;28342;42.594;23.414;2022-11-12T06:32:25;95810.41;;;6.48;87.56
42705;BME280;28342;42.594;23.414;2022-11-12T06:34:58;95840.13;;;6.71;87.76
42705;BME280;28342;42.594;23.414;2022-11-12T06:37:27;95808.09;;;6.57;87.16
42705;BME280;28342;42.594;23.414;2022-11-12T06:39:52;95847.78;;;6.72;87.45
42705;BME280;28342;42.594;23.414;2022-11-12T06:42:26;95822.44;;;6.66;87.37
42705;BME280;28342;42.594;23.414;2022-11-12T06:44:52;95809.50;;;6.65;87.35
42705;BME280;28342;42.594;23.414;2022-11-12T06:47:17;95870.16;;;6.92;88.62
42705;BME280;28342;42.594;23.414;2022-11-12T06:49:54;95844.22;;;6.83;89.30
42705;BME280;28342;42.594;23.414;2022-11-12T06:52:50;95837.25;;;6.72;89.92
42705;BME280;28342;42.594;23.414;2022-11-12T06:55:21;95813.03;;;6.75;89.65
42705;BME280;28342;42.594;23.414;2022-11-12T06:57:53;95818.84;;;6.77;90.52
42705;BME280;28342;42.594;23.414;2022-11-12T07:00:19;95817.25;;;6.76;90.40
42705;BME280;28342;42.594;23.414;2022-11-12T07:02:46;95873.53;;;7.19;89.72
42705;BME280;28342;42.594;23.414;2022-11-12T07:05:37;95811.00;;;6.87;90.12
42705;BME280;28342;42.594;23.414;2022-11-12T07:08:34;95840.72;;;7.05;91.71
42705;BME280;28342;42.594;23.414;2022-11-12T07:10:59;95872.03;;;7.28;92.19
42705;BME280;28342;42.594;23.414;2022-11-12T07:13:57;95814.22;;;6.63;91.39
42705;BME280;28342;42.594;23.414;2022-11-12T07:16:43;95865.06;;;7.17;90.78
42705;BME280;28342;42.594;23.414;2022-11-12T07:19:14;95865.72;;;7.34;90.04
42705;BME280;28342;42.594;23.414;2022-11-12T07:21:40;95806.44;;;7.10;90.11
42705;BME280;28342;42.594;23.414;2022-11-12T07:24:06;95844.03;;;7.27;90.99
42705;BME280;28342;42.594;23.414;2022-11-12T07:30:32;95860.44;;;7.71;90.07
42705;BME280;28342;42.594;23.414;2022-11-12T07:33:02;95809.38;;;7.56;90.14
42705;BME280;28342;42.594;23.414;2022-11-12T07:35:34;95856.13;;;8.02;90.65
42705;BME280;28342;42.594;23.414;2022-11-12T07:38:25;95860.16;;;8.15;87.96
42705;BME280;28342;42.594;23.414;2022-11-12T07:41:10;95838.69;;;8.12;88.16
42705;BME280;28342;42.594;23.414;2022-11-12T07:43:47;95842.69;;;8.14;87.82
42705;BME280;28342;42.594;23.414;2022-11-12T07:46:19;95846.19;;;8.30;86.88
42705;BME280;28342;42.594;23.414;2022-11-12T07:48:48;95866.38;;;8.46;85.25
42705;BME280;28342;42.594;23.414;2022-11-12T07:51:52;95863.78;;;8.61;80.97
42705;BME280;28342;42.594;23.414;2022-11-12T07:54:18;95866.69;;;8.70;80.48
42705;BME280;28342;42.594;23.414;2022-11-12T07:56:45;95851.88;;;8.64;80.65
42705;BME280;28342;42.594;23.414;2022-11-12T07:59:36;95857.44;;;8.78;79.33
42705;BME280;28342;42.594;23.414;2022-11-12T08:02:08;95852.69;;;8.80;79.09
42705;BME280;28342;42.594;23.414;2022-11-12T08:04:50;95859.59;;;8.91;77.08
42705;BME280;28342;42.594;23.414;2022-11-12T08:07:16;95877.59;;;9.04;75.28
42705;BME280;28342;42.594;23.414;2022-11-12T08:09:54;95858.00;;;8.90;77.31
42705;BME280;28342;42.594;23.414;2022-11-12T08:12:19;95846.31;;;8.71;71.83
42705;BME280;28342;42.594;23.414;2022-11-12T08:17:57;95864.88;;;8.76;71.15
42705;BME280;28342;42.594;23.414;2022-11-12T08:20:59;95890.56;;;9.06;75.10
42705;BME280;28342;42.594;23.414;2022-11-12T08:28:01;95881.31;;;9.34;74.26
42705;BME280;28342;42.594;23.414;2022-11-12T08:30:54;95881.31;;;9.44;74.94
42705;BME280;28342;42.594;23.414;2022-11-12T08:33:23;95861.72;;;9.45;73.07
42705;BME280;28342;42.594;23.414;2022-11-12T08:42:05;95847.97;;;9.22;70.27
42705;BME280;28342;42.594;23.414;2022-11-12T08:44:44;95879.97;;;9.56;69.71
42705;BME280;28342;42.594;23.414;2022-11-12T08:47:11;95879.19;;;9.66;69.03
42705;BME280;28342;42.594;23.414;2022-11-12T08:49:38;95869.13;;;9.58;69.44
42705;BME280;28342;42.594;23.414;2022-11-12T08:52:05;95841.03;;;9.57;69.14
42705;BME280;28342;42.594;23.414;2022-11-12T08:54:30;95880.72;;;9.87;69.32
42705;BME280;28342;42.594;23.414;2022-11-12T08:56:56;95841.25;;;9.86;69.50
42705;BME280;28342;42.594;23.414;2022-11-12T08:59:46;95833.53;;;9.95;68.57
42705;BME280;28342;42.594;23.414;2022-11-12T09:06:07;95843.94;;;9.71;66.13
42705;BME280;28342;42.594;23.414;2022-11-12T09:11:54;95832.00;;;9.83;66.10
42705;BME280;28342;42.594;23.414;2022-11-12T09:14:45;95859.63;;;9.37;64.48
42705;BME280;28342;42.594;23.414;2022-11-12T09:17:15;95829.41;;;9.27;66.01
42705;BME280;28342;42.594;23.414;2022-11-12T09:20:02;95831.00;;;9.18;66.19
42705;BME280;28342;42.594;23.414;2022-11-12T09:22:33;95824.66;;;9.35;68.25
42705;BME280;28342;42.594;23.414;2022-11-12T09:25:23;95886.56;;;9.84;67.06
42705;BME280;28342;42.594;23.414;2022-11-12T09:27:54;95871.72;;;9.88;67.58
42705;BME280;28342;42.594;23.414;2022-11-12T09:30:31;95859.84;;;9.66;66.81
42705;BME280;28342;42.594;23.414;2022-11-12T09:36:28;95878.63;;;9.74;64.37
42705;BME280;28342;42.594;23.414;2022-11-12T09:38:54;95849.78;;;9.68;67.46
42705;BME280;28342;42.594;23.414;2022-11-12T09:41:39;95888.72;;;9.82;66.57
42705;BME280;28342;42.594;23.414;2022-11-12T09:44:17;95871.72;;;9.78;67.70
42705;BME280;28342;42.594;23.414;2022-11-12T09:49:42;95867.00;;;9.65;70.26
42705;BME280;28342;42.594;23.414;2022-11-12T09:52:27;95883.41;;;9.82;70.38
42705;BME280;28342;42.594;23.414;2022-11-12T09:55:13;95873.31;;;9.79;70.90
42705;BME280;28342;42.594;23.414;2022-11-12T09:58:19;95887.59;;;9.99;72.04
42705;BME280;28342;42.594;23.414;2022-11-12T10:01:15;95883.34;;;10.03;71.98
42705;BME280;28342;42.594;23.414;2022-11-12T10:06:54;95872.72;;;10.08;72.25
42705;BME280;28342;42.594;23.414;2022-11-12T10:12:57;95888.59;;;10.18;70.37
42705;BME280;28342;42.594;23.414;2022-11-12T10:24:54;95872.78;;;9.98;69.21
42705;BME280;28342;42.594;23.414;2022-11-12T10:30:44;95855.28;;;9.92;71.61
42705;BME280;28342;42.594;23.414;2022-11-12T10:33:42;95877.78;;;10.04;69.90
42705;BME280;28342;42.594;23.414;2022-11-12T10:36:22;95876.72;;;10.05;69.07
42705;BME280;28342;42.594;23.414;2022-11-12T10:38:56;95889.44;;;10.03;68.88
42705;BME280;28342;42.594;23.414;2022-11-12T10:41:50;95884.38;;;10.17;69.29
42705;BME280;28342;42.594;23.414;2022-11-12T10:44:27;95872.44;;;10.14;69.63
42705;BME280;28342;42.594;23.414;2022-11-12T10:52:30;95860.53;;;10.07;69.63
42705;BME280;28342;42.594;23.414;2022-11-12T10:55:22;95880.38;;;10.30;69.58
42705;BME280;28342;42.594;23.414;2022-11-12T11:01:08;95870.78;;;10.44;68.87
42705;BME280;28342;42.594;23.414;2022-11-12T11:03:53;95870.78;;;10.39;68.88
42705;BME280;28342;42.594;23.414;2022-11-12T11:06:22;95867.59;;;10.42;68.43
42705;BME280;28342;42.594;23.414;2022-11-12T11:11:50;95860.75;;;10.26;67.96
42705;BME280;28342;42.594;23.414;2022-11-12T11:14:27;95873.72;;;10.37;66.82
42705;BME280;28342;42.594;23.414;2022-11-12T11:17:18;95868.72;;;10.26;65.90
42705;BME280;28342;42.594;23.414;2022-11-12T11:19:43;95870.78;;;10.44;67.89
42705;BME280;28342;42.594;23.414;2022-11-12T11:22:40;95859.34;;;10.48;69.13
42705;BME280;28342;42.594;23.414;2022-11-12T11:25:33;95870.72;;;10.59;66.12
42705;BME280;28342;42.594;23.414;2022-11-12T11:33:56;95855.50;;;10.70;67.11
42705;BME280;28342;42.594;23.414;2022-11-12T11:36:51;95868.72;;;10.80;66.81
42705;BME280;28342;42.594;23.414;2022-11-12T11:50:58;95853.25;;;9.43;68.93
42705;BME280;28342;42.594;23.414;2022-11-12T11:54:05;95862.25;;;9.57;70.13
42705;BME280;28342;42.594;23.414;2022-11-12T11:56:44;95859.53;;;9.77;69.81
42705;BME280;28342;42.594;23.414;2022-11-12T12:02:58;95868.31;;;9.57;69.98
42705;BME280;28342;42.594;23.414;2022-11-12T12:08:09;95855.28;;;9.92;69.89
42705;BME280;28342;42.594;23.414;2022-11-12T12:22:38;95840.53;;;9.55;69.61
42705;BME280;28342;42.594;23.414;2022-11-12T12:25:31;95860.06;;;9.84;69.69
42705;BME280;28342;42.594;23.414;2022-11-12T12:28:36;95806.88;;;9.55;68.14
42705;BME280;28342;42.594;23.414;2022-11-12T12:31:10;95846.25;;;9.93;67.98
42705;BME280;28342;42.594;23.414;2022-11-12T12:34:22;95825.13;;;9.72;68.01
42705;BME280;28342;42.594;23.414;2022-11-12T12:36:49;95855.25;;;10.02;68.36
42705;BME280;28342;42.594;23.414;2022-11-12T12:40:34;95827.19;;;9.96;70.77
42705;BME280;28342;42.594;23.414;2022-11-12T12:44:07;95838.22;;;10.18;71.68
42705;BME280;28342;42.594;23.414;2022-11-12T12:46:16;95853.59;;;10.31;73.25
42705;BME280;28342;42.594;23.414;2022-11-12T12:49:22;95845.13;;;10.19;74.07
42705;BME280;28342;42.594;23.414;2022-11-12T12:52:18;95854.91;;;10.34;73.11
42705;BME280;28342;42.594;23.414;2022-11-12T12:55:36;95824.47;;;10.06;74.21
42705;BME280;28342;42.594;23.414;2022-11-12T12:58:00;95840.38;;;10.06;73.83
42705;BME280;28342;42.594;23.414;2022-11-12T13:00:40;95830.81;;;10.10;74.11
42705;BME280;28342;42.594;23.414;2022-11-12T13:03:07;95827.13;;;10.11;74.15
42705;BME280;28342;42.594;23.414;2022-11-12T13:05:46;95858.66;;;10.12;75.03
42705;BME280;28342;42.594;23.414;2022-11-12T13:08:34;95834.69;;;9.58;75.56
42705;BME280;28342;42.594;23.414;2022-11-12T13:11:02;95842.66;;;9.53;76.42
42705;BME280;28342;42.594;23.414;2022-11-12T13:13:30;95865.16;;;9.50;77.19
42705;BME280;28342;42.594;23.414;2022-11-12T13:15:57;95856.94;;;8.96;79.63
42705;BME280;28342;42.594;23.414;2022-11-12T13:21:15;95852.72;;;8.90;80.64
42705;BME280;28342;42.594;23.414;2022-11-12T13:23:47;95860.56;;;8.44;84.20
42705;BME280;28342;42.594;23.414;2022-11-12T13:26:45;95866.31;;;8.36;84.09
42705;BME280;28342;42.594;23.414;2022-11-12T13:31:45;95848.78;;;8.20;84.17
42705;BME280;28342;42.594;23.414;2022-11-12T13:34:19;95855.66;;;8.21;84.74
42705;BME280;28342;42.594;23.414;2022-11-12T13:37:00;95868.44;;;8.34;86.41
42705;BME280;28342;42.594;23.414;2022-11-12T13:39:31;95868.19;;;8.35;85.66
42705;BME280;28342;42.594;23.414;2022-11-12T13:42:00;95876.94;;;8.46;88.68
42705;BME280;28342;42.594;23.414;2022-11-12T13:44:47;95873.81;;;8.64;87.28
42705;BME280;28342;42.594;23.414;2022-11-12T13:47:17;95848.38;;;8.43;86.96
42705;BME280;28342;42.594;23.414;2022-11-12T13:49:45;95865.88;;;8.69;86.38
42705;BME280;28342;42.594;23.414;2022-11-12T13:52:17;95840.22;;;8.65;86.53
42705;BME280;28342;42.594;23.414;2022-11-12T13:54:44;95871.22;;;8.80;85.38
42705;BME280;28342;42.594;23.414;2022-11-12T13:57:24;95870.41;;;8.84;87.92
42705;BME280;28342;42.594;23.414;2022-11-12T14:00:28;95865.09;;;8.69;87.80
42705;BME280;28342;42.594;23.414;2022-11-12T14:03:13;95853.19;;;8.61;88.77
42705;BME280;28342;42.594;23.414;2022-11-12T14:05:49;95841.81;;;8.66;89.95
42705;BME280;28342;42.594;23.414;2022-11-12T14:08:47;95874.88;;;8.68;86.06
42705;BME280;28342;42.594;23.414;2022-11-12T14:21:09;95862.25;;;8.96;89.10
42705;BME280;28342;42.594;23.414;2022-11-12T14:23:49;95860.94;;;9.04;87.07
42705;BME280;28342;42.594;23.414;2022-11-12T14:26:41;95865.97;;;9.25;87.00
42705;BME280;28342;42.594;23.414;2022-11-12T14:30:18;95870.72;;;9.34;84.52
42705;BME280;28342;42.594;23.414;2022-11-12T14:33:08;95854.03;;;9.18;85.23
42705;BME280;28342;42.594;23.414;2022-11-12T14:35:36;95821.75;;;8.95;86.33
42705;BME280;28342;42.594;23.414;2022-11-12T14:38:05;95853.25;;;9.12;86.34
42705;BME280;28342;42.594;23.414;2022-11-12T14:40:41;95864.91;;;9.37;86.19
42705;BME280;28342;42.594;23.414;2022-11-12T14:43:34;95861.75;;;9.35;87.13
42705;BME280;28342;42.594;23.414;2022-11-12T14:47:00;95864.88;;;9.47;86.50
42705;BME280;28342;42.594;23.414;2022-11-12T14:52:14;95852.44;;;9.47;85.83
42705;BME280;28342;42.594;23.414;2022-11-12T14:54:50;95861.72;;;9.55;85.15
42705;BME280;28342;42.594;23.414;2022-11-12T14:57:29;95857.47;;;9.49;85.52
42705;BME280;28342;42.594;23.414;2022-11-12T15:00:35;95872.28;;;9.60;85.58
42705;BME280;28342;42.594;23.414;2022-11-12T15:03:02;95845.56;;;9.31;85.36
42705;BME280;28342;42.594;23.414;2022-11-12T15:05:31;95818.56;;;9.24;85.52
42705;BME280;28342;42.594;23.414;2022-11-12T15:08:09;95849.03;;;9.37;86.34
42705;BME280;28342;42.594;23.414;2022-11-12T15:10:40;95865.16;;;9.55;85.69
42705;BME280;28342;42.594;23.414;2022-11-12T15:15:36;95858.00;;;9.56;85.42
42705;BME280;28342;42.594;23.414;2022-11-12T15:18:06;95859.63;;;9.37;85.23
42705;BME280;28342;42.594;23.414;2022-11-12T15:20:42;95846.09;;;9.08;86.12
42705;BME280;28342;42.594;23.414;2022-11-12T15:23:17;95868.84;;;9.19;86.56
42705;BME280;28342;42.594;23.414;2022-11-12T15:25:44;95841.59;;;9.03;87.19
42705;BME280;28342;42.594;23.414;2022-11-12T15:28:12;95858.03;;;9.25;87.25
42705;BME280;28342;42.594;23.414;2022-11-12T15:30:40;95865.69;;;9.37;86.85
42705;BME280;28342;42.594;23.414;2022-11-12T15:33:12;95838.97;;;9.23;86.78
42705;BME280;28342;42.594;23.414;2022-11-12T15:35:41;95866.47;;;9.43;86.39
42705;BME280;28342;42.594;23.414;2022-11-12T15:38:34;95859.06;;;9.40;87.04
42705;BME280;28342;42.594;23.414;2022-11-12T15:41:02;95854.56;;;9.30;87.16
42705;BME280;28342;42.594;23.414;2022-11-12T15:43:34;95877.59;;;9.45;87.25
42705;BME280;28342;42.594;23.414;2022-11-12T15:46:11;95860.13;;;9.34;86.93
42705;BME280;28342;42.594;23.414;2022-11-12T15:48:38;95873.91;;;9.51;86.53
42705;BME280;28342;42.594;23.414;2022-11-12T15:51:03;95872.31;;;9.45;86.08
42705;BME280;28342;42.594;23.414;2022-11-12T15:53:29;95880.25;;;9.40;86.58
42705;BME280;28342;42.594;23.414;2022-11-12T15:55:58;95866.50;;;9.27;86.11
42705;BME280;28342;42.594;23.414;2022-11-12T15:58:43;95871.50;;;9.19;87.09
42705;BME280;28342;42.594;23.414;2022-11-12T16:01:10;95896.41;;;9.38;86.47
42705;BME280;28342;42.594;23.414;2022-11-12T16:03:36;95902.25;;;9.35;86.71
42705;BME280;28342;42.594;23.414;2022-11-12T16:06:01;95882.13;;;9.24;86.82
42705;BME280;28342;42.594;23.414;2022-11-12T16:08:27;95872.31;;;9.14;88.00
42705;BME280;28342;42.594;23.414;2022-11-12T16:10:53;95899.84;;;9.28;88.30